createdAt,value
2023-05-19T00:00:58.408Z,91.68
2023-05-19T00:02:02.758Z,91.67
2023-05-19T00:03:21.082Z,91.69
2023-05-19T00:04:24.268Z,91.68
2023-05-19T00:05:28.445Z,91.77
2023-05-19T00:06:32.698Z,91.77
2023-05-19T00:07:36.886Z,91.79
2023-05-19T00:08:41.121Z,91.77
2023-05-19T00:09:45.435Z,91.82
2023-05-19T00:10:49.641Z,91.85
2023-05-19T00:11:53.980Z,91.88
2023-05-19T00:12:58.178Z,91.93
2023-05-19T00:14:02.423Z,91.99
2023-05-19T00:15:06.755Z,92.06
2023-05-19T00:16:11.094Z,92.08
2023-05-19T00:17:15.243Z,92.12
2023-05-19T00:18:19.508Z,92.18
2023-05-19T00:19:23.930Z,92.25
2023-05-19T00:20:28.045Z,92.34
2023-05-19T00:21:32.309Z,92.47
2023-05-19T00:22:36.642Z,92.60
2023-05-19T00:23:40.875Z,92.70
2023-05-19T00:24:51.147Z,92.79
2023-05-19T00:26:07.972Z,92.84
2023-05-19T00:27:11.168Z,92.90
2023-05-19T00:28:15.442Z,92.94
2023-05-19T00:29:19.619Z,92.97
2023-05-19T00:30:23.884Z,92.95
2023-05-19T00:31:28.237Z,92.98
2023-05-19T00:32:32.447Z,92.98
2023-05-19T00:33:36.765Z,92.98
2023-05-19T00:34:40.981Z,93.00
2023-05-19T00:35:45.322Z,92.97
2023-05-19T00:36:49.545Z,92.97
2023-05-19T00:37:53.810Z,93.00
2023-05-19T00:38:58.041Z,93.05
2023-05-19T00:40:02.308Z,93.12
2023-05-19T00:41:06.550Z,93.17
2023-05-19T00:42:10.778Z,93.20
2023-05-19T00:43:15.031Z,93.22
2023-05-19T00:44:19.396Z,93.26
2023-05-19T00:45:23.647Z,93.34
2023-05-19T00:46:27.890Z,93.43
2023-05-19T00:47:32.186Z,93.52
2023-05-19T00:48:36.405Z,93.58
2023-05-19T00:49:40.676Z,93.69
2023-05-19T00:50:45.037Z,93.77
2023-05-19T00:51:49.308Z,93.81
2023-05-19T00:52:53.567Z,93.89
2023-05-19T00:53:57.786Z,93.93
2023-05-19T00:55:02.108Z,93.97
2023-05-19T00:56:06.310Z,94.02
2023-05-19T00:57:10.548Z,94.09
2023-05-19T00:58:14.768Z,94.06
2023-05-19T00:59:19.047Z,94.18
2023-05-19T01:00:23.285Z,94.32
2023-05-19T01:01:27.675Z,94.36
2023-05-19T01:02:31.845Z,94.42
2023-05-19T01:03:36.125Z,94.50
2023-05-19T01:04:40.316Z,94.61
2023-05-19T01:05:44.540Z,94.67
2023-05-19T01:06:48.882Z,94.75
2023-05-19T01:07:53.054Z,94.88
2023-05-19T01:08:57.286Z,94.97
2023-05-19T01:10:01.544Z,95.08
2023-05-19T01:11:05.789Z,95.21
2023-05-19T01:12:10.130Z,95.31
2023-05-19T01:13:14.316Z,95.43
2023-05-19T01:14:18.616Z,95.50
2023-05-19T01:15:22.812Z,95.56
2023-05-19T01:16:27.176Z,95.51
2023-05-19T01:17:31.506Z,95.64
2023-05-19T01:18:35.757Z,95.65
2023-05-19T01:19:39.953Z,95.67
2023-05-19T01:20:44.170Z,95.72
2023-05-19T01:21:48.370Z,95.73
2023-05-19T01:22:52.604Z,95.73
2023-05-19T01:23:56.870Z,95.71
2023-05-19T01:25:01.121Z,95.67
2023-05-19T01:26:05.306Z,95.62
2023-05-19T01:27:09.542Z,95.64
2023-05-19T01:28:13.770Z,95.58
2023-05-19T01:29:18.002Z,95.55
2023-05-19T01:30:22.301Z,95.52
2023-05-19T01:31:26.620Z,95.50
2023-05-19T01:32:30.850Z,95.47
2023-05-19T01:33:34.985Z,95.48
2023-05-19T01:34:39.304Z,95.41
2023-05-19T01:35:43.665Z,95.40
2023-05-19T01:36:47.961Z,95.25
2023-05-19T01:37:52.152Z,95.15
2023-05-19T01:38:56.447Z,95.05
2023-05-19T01:40:00.654Z,94.90
2023-05-19T01:41:04.941Z,94.69
2023-05-19T01:42:09.135Z,94.62
2023-05-19T01:43:13.513Z,94.47
2023-05-19T01:44:17.622Z,94.33
2023-05-19T01:45:21.969Z,94.13
2023-05-19T01:46:26.248Z,93.94
2023-05-19T01:47:33.431Z,93.73
2023-05-19T01:48:36.725Z,93.49
2023-05-19T01:49:40.953Z,93.27
2023-05-19T01:50:45.257Z,93.07
2023-05-19T01:51:49.412Z,92.86
2023-05-19T01:52:53.744Z,92.69
2023-05-19T01:53:58.019Z,92.48
2023-05-19T01:55:02.245Z,92.41
2023-05-19T01:56:06.472Z,92.32
2023-05-19T01:57:10.721Z,92.23
2023-05-19T01:58:14.954Z,92.13
2023-05-19T01:59:19.177Z,92.04
2023-05-19T02:00:23.392Z,92.01
2023-05-19T02:01:27.759Z,91.97
2023-05-19T02:02:31.973Z,91.95
2023-05-19T02:03:36.245Z,91.89
2023-05-19T02:04:40.553Z,91.83
2023-05-19T02:05:44.754Z,91.89
2023-05-19T02:06:48.982Z,91.87
2023-05-19T02:07:53.239Z,91.89
2023-05-19T02:08:57.475Z,91.92
2023-05-19T02:10:01.825Z,91.94
2023-05-19T02:11:06.155Z,91.99
2023-05-19T02:12:10.364Z,92.02
2023-05-19T02:13:14.624Z,92.08
2023-05-19T02:14:18.774Z,92.13
2023-05-19T02:15:23.056Z,92.17
2023-05-19T02:16:27.506Z,92.17
2023-05-19T02:17:31.624Z,92.19
2023-05-19T02:18:35.825Z,92.20
2023-05-19T02:19:40.123Z,92.22
2023-05-19T02:20:44.319Z,92.30
2023-05-19T02:21:48.631Z,92.32
2023-05-19T02:22:52.802Z,92.44
2023-05-19T02:23:57.051Z,92.56
2023-05-19T02:25:01.290Z,92.70
2023-05-19T02:26:05.530Z,92.87
2023-05-19T02:27:09.881Z,92.99
2023-05-19T02:28:14.034Z,93.17
2023-05-19T02:29:18.270Z,93.31
2023-05-19T02:30:22.562Z,93.41
2023-05-19T02:31:26.874Z,93.52
2023-05-19T02:32:31.062Z,93.64
2023-05-19T02:33:35.225Z,93.74
2023-05-19T02:34:39.560Z,93.82
2023-05-19T02:35:43.707Z,93.86
2023-05-19T02:36:48.069Z,93.88
2023-05-19T02:37:52.236Z,93.88
2023-05-19T02:38:56.449Z,93.87
2023-05-19T02:40:00.702Z,93.88
2023-05-19T02:41:04.868Z,93.89
2023-05-19T02:42:09.038Z,93.77
2023-05-19T02:43:13.360Z,93.86
2023-05-19T02:44:17.498Z,93.87
2023-05-19T02:45:21.761Z,93.85
2023-05-19T02:46:25.995Z,93.87
2023-05-19T02:47:30.283Z,93.88
2023-05-19T02:48:34.403Z,93.90
2023-05-19T02:49:38.664Z,93.93
2023-05-19T02:50:42.971Z,93.97
2023-05-19T02:51:47.131Z,94.03
2023-05-19T02:52:51.458Z,94.09
2023-05-19T02:53:55.668Z,94.14
2023-05-19T02:55:05.951Z,94.18
2023-05-19T02:56:08.863Z,94.23
2023-05-19T02:57:13.006Z,94.31
2023-05-19T02:58:17.260Z,94.33
2023-05-19T02:59:21.939Z,94.40
2023-05-19T03:00:25.676Z,94.53
2023-05-19T03:01:29.932Z,94.58
2023-05-19T03:02:34.148Z,94.67
2023-05-19T03:03:38.465Z,94.69
2023-05-19T03:04:42.636Z,94.76
2023-05-19T03:05:46.844Z,94.85
2023-05-19T03:06:51.103Z,94.97
2023-05-19T03:07:55.339Z,95.07
2023-05-19T03:08:59.463Z,95.20
2023-05-19T03:10:03.862Z,95.32
2023-05-19T03:11:08.135Z,95.44
2023-05-19T03:12:12.256Z,95.56
2023-05-19T03:13:16.502Z,95.67
2023-05-19T03:14:20.889Z,95.77
2023-05-19T03:15:24.986Z,95.88
2023-05-19T03:16:29.289Z,96.03
2023-05-19T03:17:33.724Z,96.16
2023-05-19T03:18:37.922Z,96.25
2023-05-19T03:19:42.087Z,96.35
2023-05-19T03:20:46.282Z,96.45
2023-05-19T03:21:50.415Z,96.52
2023-05-19T03:22:54.712Z,96.63
2023-05-19T03:23:58.940Z,96.73
2023-05-19T03:25:03.180Z,96.81
2023-05-19T03:26:07.403Z,96.97
2023-05-19T03:27:11.679Z,97.07
2023-05-19T03:28:15.870Z,97.19
2023-05-19T03:29:20.100Z,97.31
2023-05-19T03:30:24.331Z,97.42
2023-05-19T03:31:28.534Z,97.53
2023-05-19T03:32:32.876Z,97.63
2023-05-19T03:33:37.019Z,97.70
2023-05-19T03:34:41.206Z,97.75
2023-05-19T03:35:45.451Z,97.80
2023-05-19T03:36:49.602Z,97.84
2023-05-19T03:37:53.889Z,97.89
2023-05-19T03:38:58.083Z,97.91
2023-05-19T03:40:02.391Z,97.94
2023-05-19T03:41:06.581Z,97.99
2023-05-19T03:42:10.897Z,98.01
2023-05-19T03:43:15.190Z,98.06
2023-05-19T03:44:19.352Z,98.12
2023-05-19T03:45:23.599Z,98.19
2023-05-19T03:46:28.001Z,98.23
2023-05-19T03:47:32.056Z,98.28
2023-05-19T03:48:36.297Z,98.33
2023-05-19T03:49:40.529Z,98.38
2023-05-19T03:50:44.772Z,98.48
2023-05-19T03:51:49.019Z,98.55
2023-05-19T03:52:53.130Z,98.60
2023-05-19T03:53:57.429Z,98.65
2023-05-19T03:55:01.676Z,98.67
2023-05-19T03:56:05.966Z,98.83
2023-05-19T03:57:10.160Z,98.83
2023-05-19T03:58:14.534Z,98.99
2023-05-19T03:59:18.678Z,98.96
2023-05-19T04:00:23.010Z,99.11
2023-05-19T04:01:27.201Z,99.15
2023-05-19T04:02:31.717Z,99.25
2023-05-19T04:03:35.864Z,99.31
2023-05-19T04:04:40.065Z,99.37
2023-05-19T04:05:44.261Z,99.41
2023-05-19T04:06:48.502Z,99.40
2023-05-19T04:07:52.833Z,99.40
2023-05-19T04:08:57.114Z,99.42
2023-05-19T04:10:01.377Z,99.41
2023-05-19T04:11:05.613Z,99.40
2023-05-19T04:12:09.838Z,99.48
2023-05-19T04:13:14.253Z,99.59
2023-05-19T04:14:18.428Z,99.58
2023-05-19T04:15:22.642Z,99.64
2023-05-19T04:16:26.946Z,99.72
2023-05-19T04:17:31.235Z,99.80
2023-05-19T04:18:35.531Z,99.83
2023-05-19T04:19:39.686Z,99.90
2023-05-19T04:20:43.940Z,99.92
2023-05-19T04:21:48.179Z,100.00
2023-05-19T04:22:53.320Z,100.00
2023-05-19T04:23:57.219Z,100.00
2023-05-19T04:25:01.517Z,100.00
2023-05-19T04:26:05.740Z,100.00
2023-05-19T04:27:10.012Z,100.00
2023-05-19T04:28:14.181Z,100.00
2023-05-19T04:29:18.764Z,100.00
2023-05-19T04:30:22.893Z,100.00
2023-05-19T04:31:27.098Z,100.00
2023-05-19T04:32:31.340Z,100.00
2023-05-19T04:33:35.647Z,100.00
2023-05-19T04:34:40.012Z,100.00
2023-05-19T04:35:44.204Z,100.00
2023-05-19T04:36:49.203Z,100.00
2023-05-19T04:37:52.705Z,100.00
2023-05-19T04:38:57.067Z,100.00
2023-05-19T04:40:01.309Z,100.00
2023-05-19T04:41:05.523Z,100.00
2023-05-19T04:42:09.837Z,100.00
2023-05-19T04:43:14.140Z,100.00
2023-05-19T04:44:18.584Z,100.00
2023-05-19T04:45:22.625Z,100.00
2023-05-19T04:46:26.928Z,100.00
2023-05-19T04:47:31.129Z,100.00
2023-05-19T04:48:35.349Z,100.00
2023-05-19T04:49:39.683Z,100.00
2023-05-19T04:50:43.883Z,100.00
2023-05-19T04:51:48.121Z,100.00
2023-05-19T04:52:52.263Z,100.00
2023-05-19T04:53:56.556Z,100.00
2023-05-19T04:55:00.875Z,100.00
2023-05-19T04:56:05.072Z,100.00
2023-05-19T04:57:09.370Z,100.00
2023-05-19T04:58:13.597Z,100.00
2023-05-19T04:59:17.925Z,100.00
2023-05-19T05:00:22.191Z,100.00
2023-05-19T05:01:26.635Z,100.00
2023-05-19T05:02:30.642Z,100.00
2023-05-19T05:03:35.111Z,100.00
2023-05-19T05:04:39.101Z,100.00
2023-05-19T05:05:43.262Z,100.00
2023-05-19T05:06:47.602Z,100.00
2023-05-19T05:07:51.859Z,100.00
2023-05-19T05:08:56.095Z,100.00
2023-05-19T05:10:00.337Z,100.00
2023-05-19T05:11:04.594Z,100.00
2023-05-19T05:12:08.871Z,100.00
2023-05-19T05:13:13.105Z,100.00
2023-05-19T05:14:17.323Z,100.00
2023-05-19T05:15:21.689Z,100.00
2023-05-19T05:16:26.008Z,100.00
2023-05-19T05:17:30.234Z,100.00
2023-05-19T05:18:34.511Z,100.00
2023-05-19T05:19:38.836Z,100.00
2023-05-19T05:20:43.073Z,100.00
2023-05-19T05:21:47.213Z,100.00
2023-05-19T05:22:51.547Z,100.00
2023-05-19T05:23:55.737Z,100.00
2023-05-19T05:25:00.022Z,100.00
2023-05-19T05:26:04.298Z,100.00
2023-05-19T05:27:08.490Z,100.00
2023-05-19T05:28:12.771Z,100.00
2023-05-19T05:29:17.005Z,100.00
2023-05-19T05:30:21.373Z,100.00
2023-05-19T05:31:25.592Z,100.00
2023-05-19T05:32:29.973Z,100.00
2023-05-19T05:33:34.166Z,100.00
2023-05-19T05:34:38.397Z,100.00
2023-05-19T05:35:42.652Z,100.00
2023-05-19T05:36:46.912Z,100.00
2023-05-19T05:37:52.120Z,100.00
2023-05-19T05:38:56.020Z,100.00
2023-05-19T05:40:00.320Z,100.00
2023-05-19T05:41:04.550Z,100.00
2023-05-19T05:42:08.872Z,100.00
2023-05-19T05:43:13.170Z,100.00
2023-05-19T05:44:17.366Z,100.00
2023-05-19T05:45:27.660Z,100.00
2023-05-19T05:46:30.572Z,100.00
2023-05-19T05:47:34.823Z,100.00
2023-05-19T05:48:38.963Z,100.00
2023-05-19T05:49:43.350Z,100.00
2023-05-19T05:50:47.639Z,100.00
2023-05-19T05:52:04.820Z,100.00
2023-05-19T05:52:56.230Z,100.00
2023-05-19T05:54:00.539Z,100.00
2023-05-19T05:55:04.819Z,100.00
2023-05-19T05:56:12.076Z,100.00
2023-05-19T05:57:15.639Z,100.00
2023-05-19T05:58:19.906Z,100.00
2023-05-19T05:59:24.083Z,99.87
2023-05-19T06:00:28.437Z,99.66
2023-05-19T06:01:35.437Z,99.46
2023-05-19T06:02:37.182Z,99.43
2023-05-19T06:03:41.331Z,99.44
2023-05-19T06:04:45.687Z,99.44
2023-05-19T06:05:50.005Z,99.37
2023-05-19T06:06:54.301Z,99.16
2023-05-19T06:07:58.603Z,99.06
2023-05-19T06:09:02.884Z,98.98
2023-05-19T06:10:07.255Z,98.87
2023-05-19T06:11:11.476Z,98.53
2023-05-19T06:12:15.794Z,98.29
2023-05-19T06:13:20.071Z,98.18
2023-05-19T06:14:24.402Z,98.04
2023-05-19T06:15:28.757Z,97.90
2023-05-19T06:16:33.183Z,97.73
2023-05-19T06:17:37.460Z,97.68
2023-05-19T06:18:41.775Z,97.56
2023-05-19T06:19:46.127Z,97.50
2023-05-19T06:20:50.487Z,97.44
2023-05-19T06:21:54.826Z,97.42
2023-05-19T06:22:59.150Z,97.27
2023-05-19T06:24:03.316Z,97.03
2023-05-19T06:25:07.684Z,96.79
2023-05-19T06:26:12.112Z,96.68
2023-05-19T06:27:16.388Z,96.61
2023-05-19T06:28:20.750Z,96.62
2023-05-19T06:29:25.120Z,96.70
2023-05-19T06:30:29.482Z,96.63
2023-05-19T06:31:33.875Z,96.58
2023-05-19T06:32:38.105Z,96.64
2023-05-19T06:33:42.492Z,96.64
2023-05-19T06:34:46.835Z,96.61
2023-05-19T06:35:51.169Z,96.54
2023-05-19T06:36:55.502Z,96.45
2023-05-19T06:37:59.842Z,96.39
2023-05-19T06:39:04.145Z,96.42
2023-05-19T06:40:08.525Z,96.40
2023-05-19T06:41:12.849Z,96.08
2023-05-19T06:42:17.260Z,95.64
2023-05-19T06:43:21.567Z,95.37
2023-05-19T06:44:25.952Z,94.92
2023-05-19T06:45:30.305Z,94.40
2023-05-19T06:46:34.721Z,93.62
2023-05-19T06:47:39.019Z,93.22
2023-05-19T06:48:43.420Z,92.88
2023-05-19T06:49:47.784Z,92.47
2023-05-19T06:50:52.132Z,92.13
2023-05-19T06:51:56.527Z,91.67
2023-05-19T06:53:00.864Z,91.37
2023-05-19T06:54:05.251Z,90.88
2023-05-19T06:55:09.559Z,90.89
2023-05-19T06:56:13.923Z,91.01
2023-05-19T06:57:18.337Z,90.61
2023-05-19T06:58:22.728Z,89.94
2023-05-19T06:59:27.005Z,89.40
2023-05-19T07:00:31.448Z,89.02
2023-05-19T07:01:35.667Z,88.76
2023-05-19T07:02:40.085Z,88.08
2023-05-19T07:03:44.470Z,87.34
2023-05-19T07:04:48.760Z,87.11
2023-05-19T07:05:53.112Z,86.91
2023-05-19T07:06:58.569Z,86.50
2023-05-19T07:08:02.549Z,86.39
2023-05-19T07:09:06.840Z,86.11
2023-05-19T07:10:11.200Z,85.42
2023-05-19T07:11:15.591Z,84.71
2023-05-19T07:12:19.995Z,83.75
2023-05-19T07:13:26.617Z,83.48
2023-05-19T07:14:28.594Z,83.31
2023-05-19T07:15:32.896Z,83.22
2023-05-19T07:16:37.335Z,83.03
2023-05-19T07:17:41.596Z,82.64
2023-05-19T07:18:46.038Z,83.00
2023-05-19T07:19:50.384Z,82.93
2023-05-19T07:20:54.800Z,82.20
2023-05-19T07:21:59.195Z,81.32
2023-05-19T07:23:03.542Z,81.57
2023-05-19T07:24:10.833Z,82.03
2023-05-19T07:25:14.351Z,82.22
2023-05-19T07:26:18.717Z,81.78
2023-05-19T07:27:22.996Z,81.20
2023-05-19T07:28:27.375Z,80.42
2023-05-19T07:29:31.631Z,80.24
2023-05-19T07:30:36.070Z,78.90
2023-05-19T07:31:40.385Z,78.97
2023-05-19T07:32:44.895Z,79.75
2023-05-19T07:33:49.254Z,80.14
2023-05-19T07:34:53.509Z,80.41
2023-05-19T07:35:57.900Z,80.38
2023-05-19T07:37:02.226Z,80.02
2023-05-19T07:38:06.613Z,79.86
2023-05-19T07:39:11.273Z,80.52
2023-05-19T07:40:15.390Z,80.86
2023-05-19T07:41:19.864Z,80.16
2023-05-19T07:42:24.209Z,80.03
2023-05-19T07:43:28.566Z,79.47
2023-05-19T07:44:33.102Z,79.95
2023-05-19T07:45:37.437Z,80.14
2023-05-19T07:46:41.912Z,80.42
2023-05-19T07:47:46.183Z,79.11
2023-05-19T07:48:50.637Z,78.34
2023-05-19T07:50:01.041Z,79.15
2023-05-19T07:51:04.021Z,79.72
2023-05-19T07:52:08.484Z,79.32
2023-05-19T07:53:12.797Z,79.27
2023-05-19T07:54:17.234Z,79.23
2023-05-19T07:55:21.503Z,79.61
2023-05-19T07:56:25.931Z,79.54
2023-05-19T07:57:30.403Z,79.59
2023-05-19T07:58:34.737Z,79.51
2023-05-19T07:59:39.212Z,79.69
2023-05-19T08:00:43.601Z,78.95
2023-05-19T08:01:48.011Z,79.04
2023-05-19T08:02:52.538Z,78.35
2023-05-19T08:03:56.897Z,78.40
2023-05-19T08:05:01.203Z,78.43
2023-05-19T08:06:05.663Z,78.70
2023-05-19T08:07:10.004Z,78.54
2023-05-19T08:08:17.383Z,78.52
2023-05-19T08:09:20.948Z,78.30
2023-05-19T08:10:25.255Z,78.49
2023-05-19T08:11:29.647Z,78.81
2023-05-19T08:12:34.072Z,78.65
2023-05-19T08:13:38.471Z,79.06
2023-05-19T08:14:42.872Z,79.02
2023-05-19T08:15:47.158Z,78.78
2023-05-19T08:16:51.664Z,78.78
2023-05-19T08:17:58.948Z,78.77
2023-05-19T08:19:02.586Z,78.78
2023-05-19T08:20:06.743Z,78.48
2023-05-19T08:21:11.187Z,79.18
2023-05-19T08:22:15.530Z,79.85
2023-05-19T08:23:19.842Z,78.81
2023-05-19T08:24:38.349Z,78.26
2023-05-19T08:25:41.448Z,78.13
2023-05-19T08:26:45.759Z,77.48
2023-05-19T08:27:50.206Z,77.73
2023-05-19T08:28:54.609Z,78.20
2023-05-19T08:29:59.056Z,78.04
2023-05-19T08:31:03.367Z,77.99
2023-05-19T08:32:07.677Z,78.14
2023-05-19T08:33:12.157Z,77.21
2023-05-19T08:34:16.443Z,76.06
2023-05-19T08:35:23.874Z,75.61
2023-05-19T08:36:27.388Z,75.95
2023-05-19T08:37:34.023Z,75.92
2023-05-19T08:38:36.209Z,75.76
2023-05-19T08:39:40.552Z,75.86
2023-05-19T08:40:44.940Z,75.70
2023-05-19T08:41:49.300Z,76.24
2023-05-19T08:42:53.677Z,76.69
2023-05-19T08:43:57.975Z,76.66
2023-05-19T08:45:02.500Z,76.60
2023-05-19T08:46:06.848Z,76.70
2023-05-19T08:47:11.212Z,76.38
2023-05-19T08:48:15.619Z,76.08
2023-05-19T08:49:19.892Z,76.07
2023-05-19T08:50:24.366Z,75.28
2023-05-19T08:51:28.742Z,75.08
2023-05-19T08:52:33.142Z,75.20
2023-05-19T08:53:37.561Z,75.02
2023-05-19T08:54:41.845Z,74.70
2023-05-19T08:55:46.356Z,74.43
2023-05-19T08:56:50.637Z,74.43
2023-05-19T08:57:55.210Z,74.86
2023-05-19T08:58:59.466Z,75.05
2023-05-19T09:00:03.914Z,75.44
2023-05-19T09:01:08.386Z,74.66
2023-05-19T09:02:12.628Z,74.41
2023-05-19T09:03:23.284Z,74.18
2023-05-19T09:04:21.550Z,73.07
2023-05-19T09:05:25.815Z,72.95
2023-05-19T09:06:30.246Z,73.36
2023-05-19T09:07:34.656Z,71.84
2023-05-19T09:08:39.274Z,72.58
2023-05-19T09:09:43.568Z,73.01
2023-05-19T09:10:47.982Z,72.34
2023-05-19T09:11:52.305Z,72.61
2023-05-19T09:12:56.693Z,73.04
2023-05-19T09:14:01.109Z,73.43
2023-05-19T09:15:05.521Z,73.48
2023-05-19T09:16:10.031Z,73.31
2023-05-19T09:17:14.444Z,73.55
2023-05-19T09:18:18.728Z,73.84
2023-05-19T09:19:23.216Z,73.78
2023-05-19T09:20:27.386Z,73.93
2023-05-19T09:21:31.898Z,73.53
2023-05-19T09:22:36.192Z,72.90
2023-05-19T09:23:40.614Z,72.86
2023-05-19T09:24:45.015Z,72.76
2023-05-19T09:25:49.416Z,73.49
2023-05-19T09:26:53.749Z,73.37
2023-05-19T09:27:58.084Z,72.99
2023-05-19T09:29:02.521Z,73.54
2023-05-19T09:30:06.830Z,73.74
2023-05-19T09:31:11.289Z,73.78
2023-05-19T09:32:15.732Z,73.98
2023-05-19T09:33:20.057Z,73.48
2023-05-19T09:34:24.373Z,73.35
2023-05-19T09:35:28.703Z,73.80
2023-05-19T09:36:33.101Z,73.79
2023-05-19T09:37:37.528Z,73.03
2023-05-19T09:38:44.897Z,72.61
2023-05-19T09:39:48.408Z,71.54
2023-05-19T09:40:52.711Z,71.46
2023-05-19T09:41:57.128Z,72.74
2023-05-19T09:43:01.540Z,72.80
2023-05-19T09:44:05.853Z,72.75
2023-05-19T09:45:24.384Z,72.09
2023-05-19T09:46:27.732Z,71.87
2023-05-19T09:47:31.889Z,71.02
2023-05-19T09:48:36.253Z,70.96
2023-05-19T09:49:40.533Z,71.29
2023-05-19T09:50:44.882Z,71.13
2023-05-19T09:51:49.321Z,71.40
2023-05-19T09:52:53.634Z,71.36
2023-05-19T09:54:12.052Z,70.51
2023-05-19T09:55:15.417Z,70.70
2023-05-19T09:56:19.747Z,70.22
2023-05-19T09:57:24.194Z,70.63
2023-05-19T09:58:28.504Z,70.64
2023-05-19T09:59:34.106Z,71.00
2023-05-19T10:00:37.343Z,70.58
2023-05-19T10:01:41.719Z,70.34
2023-05-19T10:02:46.027Z,69.68
2023-05-19T10:03:50.374Z,68.74
2023-05-19T10:04:54.786Z,69.22
2023-05-19T10:05:59.117Z,70.02
2023-05-19T10:07:03.480Z,67.97
2023-05-19T10:08:07.865Z,67.35
2023-05-19T10:09:12.200Z,67.69
2023-05-19T10:10:16.745Z,68.60
2023-05-19T10:11:21.010Z,68.82
2023-05-19T10:12:25.459Z,68.27
2023-05-19T10:13:29.804Z,69.49
2023-05-19T10:14:34.165Z,69.61
2023-05-19T10:15:49.918Z,69.24
2023-05-19T10:16:43.049Z,69.51
2023-05-19T10:17:47.457Z,69.17
2023-05-19T10:18:51.803Z,67.68
2023-05-19T10:19:56.200Z,66.64
2023-05-19T10:21:00.587Z,67.11
2023-05-19T10:22:04.895Z,67.91
2023-05-19T10:23:09.447Z,68.17
2023-05-19T10:24:13.845Z,68.02
2023-05-19T10:25:18.155Z,67.43
2023-05-19T10:26:22.549Z,66.16
2023-05-19T10:27:26.945Z,66.44
2023-05-19T10:28:31.407Z,65.89
2023-05-19T10:29:35.729Z,66.57
2023-05-19T10:30:40.130Z,66.43
2023-05-19T10:31:44.484Z,67.01
2023-05-19T10:32:48.863Z,66.19
2023-05-19T10:33:53.302Z,65.26
2023-05-19T10:34:57.724Z,65.69
2023-05-19T10:36:02.279Z,65.83
2023-05-19T10:37:06.653Z,65.82
2023-05-19T10:38:11.130Z,65.29
2023-05-19T10:39:15.399Z,65.50
2023-05-19T10:40:19.891Z,65.65
2023-05-19T10:41:24.282Z,65.54
2023-05-19T10:42:28.594Z,64.23
2023-05-19T10:43:33.050Z,64.30
2023-05-19T10:44:37.369Z,64.34
2023-05-19T10:45:41.763Z,64.26
2023-05-19T10:46:46.207Z,63.24
2023-05-19T10:47:50.507Z,63.09
2023-05-19T10:48:54.950Z,61.68
2023-05-19T10:49:59.408Z,61.95
2023-05-19T10:51:03.930Z,62.79
2023-05-19T10:52:08.198Z,60.67
2023-05-19T10:53:12.538Z,59.60
2023-05-19T10:54:17.017Z,58.30
2023-05-19T10:55:21.433Z,58.48
2023-05-19T10:56:25.716Z,59.09
2023-05-19T10:57:30.147Z,58.35
2023-05-19T10:58:34.613Z,58.95
2023-05-19T10:59:39.019Z,59.52
2023-05-19T11:00:43.418Z,59.68
2023-05-19T11:01:47.888Z,59.07
2023-05-19T11:02:52.340Z,59.89
2023-05-19T11:03:56.606Z,60.95
2023-05-19T11:05:01.094Z,61.41
2023-05-19T11:06:08.504Z,61.72
2023-05-19T11:07:12.120Z,61.70
2023-05-19T11:08:16.446Z,61.85
2023-05-19T11:09:31.159Z,62.28
2023-05-19T11:10:25.299Z,62.21
2023-05-19T11:11:29.558Z,59.30
2023-05-19T11:12:33.914Z,59.19
2023-05-19T11:13:38.358Z,57.79
2023-05-19T11:14:42.799Z,56.25
2023-05-19T11:15:47.132Z,56.40
2023-05-19T11:16:51.703Z,56.96
2023-05-19T11:17:56.058Z,57.54
2023-05-19T11:19:06.426Z,57.87
2023-05-19T11:20:09.301Z,56.47
2023-05-19T11:21:13.848Z,56.83
2023-05-19T11:22:18.093Z,56.67
2023-05-19T11:23:22.645Z,57.09
2023-05-19T11:24:40.911Z,57.30
2023-05-19T11:25:44.330Z,57.42
2023-05-19T11:26:48.686Z,57.58
2023-05-19T11:27:52.975Z,57.78
2023-05-19T11:28:57.441Z,57.52
2023-05-19T11:30:02.213Z,57.55
2023-05-19T11:31:06.374Z,58.01
2023-05-19T11:32:10.917Z,57.82
2023-05-19T11:33:21.209Z,56.87
2023-05-19T11:34:24.196Z,56.12
2023-05-19T11:35:28.550Z,54.75
2023-05-19T11:36:32.915Z,54.70
2023-05-19T11:37:37.291Z,55.18
2023-05-19T11:38:41.672Z,55.84
2023-05-19T11:39:46.032Z,56.15
2023-05-19T11:40:50.415Z,57.51
2023-05-19T11:42:08.798Z,56.15
2023-05-19T11:43:12.429Z,56.23
2023-05-19T11:44:16.666Z,56.20
2023-05-19T11:45:21.017Z,56.65
2023-05-19T11:46:25.757Z,57.04
2023-05-19T11:48:00.068Z,57.62
2023-05-19T11:48:47.329Z,55.02
2023-05-19T11:49:51.620Z,54.07
2023-05-19T11:50:55.997Z,54.12
2023-05-19T11:52:01.518Z,52.96
2023-05-19T11:53:11.545Z,52.11
2023-05-19T11:54:14.753Z,53.80
2023-05-19T11:55:19.096Z,53.83
2023-05-19T11:56:23.608Z,52.87
2023-05-19T11:57:47.052Z,53.18
2023-05-19T11:58:48.193Z,52.48
2023-05-19T11:59:51.696Z,53.07
2023-05-19T12:00:56.044Z,53.58
2023-05-19T12:02:00.521Z,53.96
2023-05-19T12:03:04.966Z,53.58
2023-05-19T12:04:09.211Z,53.99
2023-05-19T12:05:13.723Z,54.35
2023-05-19T12:06:18.057Z,54.44
2023-05-19T12:07:22.502Z,55.03
2023-05-19T12:08:26.826Z,55.97
2023-05-19T12:09:31.206Z,57.23
2023-05-19T12:10:35.661Z,56.18
2023-05-19T12:11:40.108Z,55.34
2023-05-19T12:12:44.457Z,53.66
2023-05-19T12:13:48.952Z,53.66
2023-05-19T12:14:53.596Z,54.11
2023-05-19T12:17:25.182Z,53.63
2023-05-19T12:18:29.464Z,52.03
2023-05-19T12:19:33.912Z,52.90
2023-05-19T12:20:38.294Z,53.42
2023-05-19T12:21:42.710Z,53.38
2023-05-19T12:22:47.123Z,53.63
2023-05-19T12:23:51.449Z,53.51
2023-05-19T12:24:55.798Z,53.58
2023-05-19T12:26:00.292Z,53.64
2023-05-19T12:27:04.674Z,54.00
2023-05-19T12:28:09.126Z,53.79
2023-05-19T12:29:13.459Z,53.66
2023-05-19T12:30:17.996Z,53.94
2023-05-19T12:31:22.465Z,54.55
2023-05-19T12:32:26.829Z,53.25
2023-05-19T12:33:32.512Z,52.62
2023-05-19T12:34:35.611Z,52.55
2023-05-19T12:35:39.877Z,52.37
2023-05-19T12:36:44.319Z,51.50
2023-05-19T12:38:02.904Z,51.22
2023-05-19T12:39:09.037Z,52.27
2023-05-19T12:40:12.463Z,52.73
2023-05-19T12:41:16.856Z,53.03
2023-05-19T12:42:21.284Z,52.62
2023-05-19T12:43:25.593Z,52.35
2023-05-19T12:44:33.075Z,52.48
2023-05-19T12:45:36.627Z,53.30
2023-05-19T12:46:40.977Z,52.47
2023-05-19T12:47:45.517Z,53.26
2023-05-19T12:48:49.780Z,50.57
2023-05-19T12:49:54.180Z,50.27
2023-05-19T12:51:04.553Z,51.49
2023-05-19T12:52:12.749Z,52.25
2023-05-19T12:53:12.078Z,51.36
2023-05-19T12:54:16.522Z,51.37
2023-05-19T12:55:20.813Z,51.63
2023-05-19T12:56:39.189Z,52.36
2023-05-19T12:57:42.442Z,52.74
2023-05-19T12:58:46.936Z,53.46
2023-05-19T12:59:51.224Z,52.91
2023-05-19T13:00:55.739Z,52.02
2023-05-19T13:02:00.001Z,52.13
2023-05-19T13:03:04.666Z,51.88
2023-05-19T13:04:08.971Z,51.85
2023-05-19T13:05:13.165Z,51.07
2023-05-19T13:06:17.537Z,50.38
2023-05-19T13:07:21.968Z,50.67
2023-05-19T13:08:26.556Z,51.62
2023-05-19T13:09:30.781Z,51.85
2023-05-19T13:10:35.481Z,51.58
2023-05-19T13:11:39.708Z,51.29
2023-05-19T13:12:44.028Z,51.56
2023-05-19T13:13:48.472Z,51.97
2023-05-19T13:14:54.874Z,52.27
2023-05-19T13:15:57.355Z,53.10
2023-05-19T13:17:01.727Z,54.43
2023-05-19T13:18:09.223Z,53.73
2023-05-19T13:19:24.351Z,53.19
2023-05-19T13:20:17.088Z,53.32
2023-05-19T13:21:21.571Z,53.86
2023-05-19T13:22:28.957Z,54.77
2023-05-19T13:23:32.610Z,54.52
2023-05-19T13:24:36.845Z,54.65
2023-05-19T13:25:41.338Z,54.83
2023-05-19T13:26:45.696Z,55.71
2023-05-19T13:27:50.135Z,56.11
2023-05-19T13:28:54.626Z,55.94
2023-05-19T13:29:59.107Z,55.18
2023-05-19T13:31:03.505Z,55.38
2023-05-19T13:32:07.837Z,54.92
2023-05-19T13:33:26.318Z,53.84
2023-05-19T13:34:29.757Z,53.83
2023-05-19T13:35:34.183Z,54.68
2023-05-19T13:36:38.628Z,55.30
2023-05-19T13:37:43.047Z,55.29
2023-05-19T13:38:47.367Z,55.51
2023-05-19T13:39:57.723Z,54.78
2023-05-19T13:41:00.904Z,54.47
2023-05-19T13:42:05.348Z,54.52
2023-05-19T13:43:09.824Z,54.91
2023-05-19T13:44:14.097Z,54.81
2023-05-19T13:45:32.579Z,54.88
2023-05-19T13:46:44.821Z,54.73
2023-05-19T13:47:40.427Z,55.09
2023-05-19T13:48:44.744Z,55.04
2023-05-19T13:49:49.197Z,55.01
2023-05-19T13:50:53.614Z,55.23